Date,TemperatureHighF,TemperatureAvgF,TemperatureLowF,DewpointHighF,DewpointAvgF,DewpointLowF,HumidityHigh,HumidityAvg,HumidityLow,PressureMaxIn,PressureMinIn,WindSpeedMaxMPH,WindSpeedAvgMPH,GustSpeedMaxMPH,PrecipitationSumIn
2013-10-1,80.3,61.3,45.6,53.0,49.2,44.0,97,69,34,30.00,29.89,11,1,11,0.00
2013-10-2,78.4,63.5,53.3,51.0,47.5,42.0,83,59,27,30.01,29.91,8,2,16,0.00
2013-10-3,75.6,63.0,46.7,43.0,35.3,24.0,76,42,15,30.08,29.96,20,4,27,0.00
2013-10-4,82.5,71.8,61.3,31.0,28.3,26.0,32,20,13,30.07,30.00,16,6,25,0.00
2013-10-5,85.8,65.8,46.1,42.0,33.5,29.0,57,33,14,30.18,30.07,9,1,13,0.00
2013-10-6,86.2,63.6,43.6,43.0,36.1,32.0,71,41,15,30.11,29.99,11,1,13,0.00
2013-10-7,84.3,62.3,45.9,48.0,39.9,28.0,72,49,13,29.99,29.84,9,1,13,0.00
2013-10-8,78.9,60.5,45.2,50.0,45.2,42.0,90,61,29,29.91,29.70,11,1,13,0.00
2013-10-9,73.4,61.1,50.5,45.0,44.0,41.0,78,56,35,29.75,29.61,12,2,15,0.00
2013-10-10,73.5,57.3,46.5,52.0,45.8,41.0,95,68,39,30.00,29.74,7,1,11,0.00
2013-10-11,68.8,52.0,45.2,51.0,47.5,44.0,99,86,53,30.09,29.97,8,1,12,0.00
2013-10-12,70.8,54.2,40.1,52.0,45.9,40.0,99,77,49,30.01,29.87,11,2,15,0.00
2013-10-13,76.2,58.0,43.4,50.0,44.6,41.0,94,65,31,30.06,29.92,7,1,15,0.00
2013-10-14,81.4,58.9,41.5,47.0,41.6,39.0,92,59,23,30.11,29.99,9,1,13,0.00
2013-10-15,85.4,60.4,42.1,44.0,37.6,34.0,83,49,16,30.04,29.93,7,1,11,0.00
2013-10-16,85.2,60.5,42.5,41.0,36.3,34.0,75,46,17,30.08,29.98,7,1,11,0.00
2013-10-17,84.0,59.7,42.4,41.0,37.5,35.0,78,49,19,30.08,29.95,8,1,13,0.00
2013-10-18,79.5,57.1,42.0,48.0,44.1,40.0,96,67,30,30.04,29.97,7,1,11,0.00
2013-10-19,86.2,58.6,41.2,49.0,43.6,40.0,95,65,22,30.07,29.97,6,1,9,0.00
2013-10-20,79.2,54.6,40.7,51.0,45.3,39.0,97,76,35,30.01,29.90,12,2,13,0.00
2013-10-21,73.9,54.3,45.3,53.0,48.2,44.0,99,83,49,30.00,29.90,4,1,8,0.00
2013-10-22,78.1,53.9,44.9,55.0,48.2,44.0,99,84,44,30.02,29.91,6,1,10,0.00
2013-10-23,74.6,52.1,44.8,54.0,47.9,44.0,99,88,43,29.97,29.88,10,2,14,0.00
2013-10-24,66.3,52.4,45.9,52.0,48.5,45.0,99,88,59,30.09,29.96,8,1,11,0.00
2013-10-25,71.0,53.0,41.3,53.0,46.6,41.0,99,81,52,30.17,30.07,8,1,9,0.00
2013-10-26,82.6,56.6,40.9,51.0,45.6,40.0,98,72,30,30.14,30.00,7,1,10,0.00
2013-10-27,62.2,51.2,43.3,52.0,47.1,42.0,99,87,64,30.02,29.63,12,3,17,0.00
2013-10-28,65.8,53.0,40.6,48.0,44.3,39.0,94,74,47,29.81,29.66,10,1,12,0.00
2013-10-29,65.4,52.4,43.6,50.0,46.2,42.0,96,81,56,30.04,29.81,6,1,9,0.00
2013-10-30,68.6,51.1,38.4,50.0,43.3,38.0,98,77,49,30.14,30.04,6,1,10,0.00
2013-10-31,76.1,54.3,38.8,49.0,43.0,37.0,95,69,37,30.17,30.05,7,1,9,0.00